createdAt,value
2019-05-21T17:36:12.031Z,14.09
2019-05-21T17:41:17.759Z,14.23
2019-05-21T17:46:23.266Z,14.23
2019-05-21T17:51:28.779Z,13.95
2019-05-21T17:56:34.170Z,13.96
2019-05-21T18:01:39.809Z,13.96
2019-05-21T18:06:45.789Z,14.02
2019-05-21T18:11:51.203Z,14.15
2019-05-21T18:16:57.015Z,14.01
2019-05-21T18:22:03.940Z,14.07
2019-05-21T18:27:09.588Z,14.07
2019-05-21T18:32:15.443Z,14.08
2019-05-21T18:37:21.052Z,14.08
2019-05-21T18:42:26.565Z,14.05
2019-05-21T18:47:32.072Z,14.05
2019-05-21T18:52:37.844Z,14.18
2019-05-21T18:57:43.512Z,14.14
2019-05-21T19:02:49.417Z,13.85
2019-05-21T19:07:55.009Z,13.97
2019-05-21T19:13:01.650Z,14.06
2019-05-21T19:18:08.549Z,14.21
2019-05-21T19:23:13.940Z,14.21
2019-05-21T19:28:19.847Z,14.14
2019-05-21T19:33:25.467Z,14.14
2019-05-21T19:38:32.104Z,13.99
2019-05-21T19:43:37.501Z,14.04
2019-05-21T19:48:43.038Z,14.07
2019-05-21T19:53:48.428Z,14.07
2019-05-21T19:58:53.771Z,14.10
2019-05-21T20:04:00.833Z,14.13
2019-05-21T20:09:09.031Z,14.03
2019-05-21T20:14:14.606Z,14.06
2019-05-21T20:19:21.290Z,13.79
2019-05-21T20:24:26.632Z,13.78
2019-05-21T20:29:33.101Z,13.74
2019-05-21T20:34:39.509Z,13.75
2019-05-21T20:39:47.813Z,13.92
2019-05-21T20:44:53.399Z,13.82
2019-05-21T20:50:00.067Z,13.81
2019-05-21T20:55:09.219Z,13.54
2019-05-21T21:00:18.105Z,13.68
2019-05-21T21:05:24.453Z,13.68
2019-05-21T21:10:30.343Z,13.75
2019-05-21T21:15:36.616Z,13.69
2019-05-21T21:20:42.497Z,13.81
2019-05-21T21:25:48.268Z,13.71
2019-05-21T21:30:54.970Z,13.61
2019-05-21T21:36:01.278Z,13.83
2019-05-21T21:41:07.963Z,13.64
2019-05-21T21:46:13.910Z,13.61
2019-05-21T21:51:20.498Z,13.61
2019-05-21T21:56:26.325Z,13.65
2019-05-21T22:01:36.400Z,13.73
2019-05-21T22:06:44.254Z,13.69
2019-05-21T22:11:50.534Z,13.54
2019-05-21T22:16:57.228Z,13.60
2019-05-21T22:22:03.210Z,13.68
2019-05-21T22:27:08.902Z,13.68
2019-05-21T22:32:16.641Z,13.80
2019-05-21T22:37:23.174Z,13.63
2019-05-21T22:42:29.309Z,13.67
2019-05-21T22:47:35.014Z,13.67
2019-05-21T22:52:40.608Z,13.91
2019-05-21T22:57:46.237Z,13.95
2019-05-21T23:02:51.754Z,13.82
2019-05-21T23:07:57.142Z,13.82
2019-05-21T23:13:02.880Z,13.82
2019-05-21T23:18:09.122Z,13.60
2019-05-21T23:23:25.912Z,13.57
2019-05-21T23:28:32.588Z,13.57
2019-05-21T23:33:38.645Z,13.63
2019-05-21T23:38:44.013Z,13.53
2019-05-21T23:43:50.262Z,13.66
2019-05-21T23:48:55.780Z,13.66
2019-05-21T23:54:01.244Z,13.54
2019-05-21T23:59:07.510Z,13.46
